Startpagina
METAR-TAF:

METAR-TAF

Vliegvelden :

Calais, Frankrijk

breedte: 50-57-39N, lengte: 001-57-05E, hoogte: 4 m

Actueel weer

Dit bericht is 3 uur en het 57 minuten geleden gemaakt, om 20:00 UTC
Wind 10 kt uit het noordoosten
Temperatuur 15°C
Vochtigheid 77%
Druk 1021 hPa
Zicht 10 km of meer
geen wolken onder 1500 m en geen cumulonimbus

METAR: LFAC 312000Z AUTO 04010KT CAVOK 15/11 Q1021

Tijdstip: 01:57 (23:57 UTC)


TAF: ontbreekt

Waarnemingen en weersverwachtingen van meer dan 4000 vliegvelden (METAR en TAF).

De beschikbare stations zijn de gele en rode punten op de kaart.

Ga met uw muis naar het station om de naam te zien.

Klik dan om waarnemingen en weersverwachtingen te zien.

kaart wijzigen: klik op de groene knoppen met een zwart kruis om in te zoomen, op de groene knop met een streepje om uit te zoomen of op de groene pijlen voor aangrenzende kaarten.


METAR-TAF: